Terminal Aerodrome Forecast
Issued by NWS Charleston, WV

Current Version | Previous Version | Graphics & Text | Print | Product List | Glossary On
Versions: 1 2 3 4 5 6 7 8 9 10 11 12 13 14 15 16 17 18 19 20 21 22 23 24 25
000
FTUS41 KRLX 271726
TAFBKW
TAF
KBKW 271726Z 2718/2818 VRB03KT 6SM SHRA HZ VCTS BKN035CB
     FM272000 VRB03KT 6SM HZ VCTS BKN035CB
     FM272200 VRB03KT P6SM VCTS BKN035CB
     FM280000 00000KT P6SM BKN035
     FM281100 00000KT 5SM BR BKN250
     FM281400 00000KT P6SM BKN035=

USA.gov is the U.S. government's official web portal to all federal, state and local government web resources and services.